createdAt,value
2022-10-02T00:00:56.682Z,12.20
2022-10-02T00:05:13.313Z,12.20
2022-10-02T00:09:49.027Z,12.30
2022-10-02T00:13:56.476Z,12.20
2022-10-02T00:18:11.327Z,12.20
2022-10-02T00:22:31.613Z,12.20
2022-10-02T00:26:46.715Z,12.40
2022-10-02T00:31:02.780Z,12.50
2022-10-02T00:35:19.748Z,12.40
2022-10-02T00:39:30.277Z,12.20
2022-10-02T00:43:50.861Z,12.10
2022-10-02T00:47:59.226Z,12.10
2022-10-02T00:52:28.737Z,12.20
2022-10-02T00:56:55.018Z,12.30
2022-10-02T01:01:03.875Z,12.50
2022-10-02T01:05:09.189Z,12.60
2022-10-02T01:09:12.295Z,12.60
2022-10-02T01:13:14.222Z,12.50
2022-10-02T01:17:27.131Z,12.50
2022-10-02T01:21:44.853Z,12.60
2022-10-02T01:25:47.157Z,12.60
2022-10-02T01:29:57.069Z,12.60
2022-10-02T01:33:59.994Z,12.60
2022-10-02T01:38:14.804Z,12.60
2022-10-02T01:42:17.197Z,12.70
2022-10-02T01:46:45.999Z,12.70
2022-10-02T01:51:03.749Z,12.70
2022-10-02T01:55:11.539Z,12.80
2022-10-02T01:59:33.651Z,12.80
2022-10-02T02:03:38.233Z,12.80
2022-10-02T02:08:01.061Z,12.60
2022-10-02T02:12:29.227Z,12.60
2022-10-02T02:16:34.611Z,12.70
2022-10-02T02:20:45.174Z,12.70
2022-10-02T02:24:58.670Z,12.80
2022-10-02T02:29:08.380Z,12.90
2022-10-02T02:33:30.227Z,12.80
2022-10-02T02:37:35.534Z,12.90
2022-10-02T02:42:00.354Z,13.00
2022-10-02T02:46:08.401Z,12.90
2022-10-02T02:50:16.141Z,12.90
2022-10-02T02:54:24.349Z,13.00
2022-10-02T02:58:33.619Z,12.90
2022-10-02T03:02:35.560Z,13.00
2022-10-02T03:06:41.120Z,13.00
2022-10-02T03:10:52.322Z,13.00
2022-10-02T03:15:16.076Z,13.00
2022-10-02T03:19:58.938Z,12.90
2022-10-02T03:24:03.522Z,12.80
2022-10-02T03:28:14.642Z,12.80
2022-10-02T03:32:18.360Z,12.70
2022-10-02T03:36:24.601Z,12.80
2022-10-02T03:40:27.522Z,12.80
2022-10-02T03:44:29.367Z,12.90
2022-10-02T03:48:31.294Z,12.80
2022-10-02T03:52:35.943Z,12.90
2022-10-02T03:56:42.821Z,12.80
2022-10-02T04:01:05.985Z,12.80
2022-10-02T04:05:19.846Z,12.80
2022-10-02T04:09:25.724Z,12.70
2022-10-02T04:13:50.257Z,12.90
2022-10-02T04:18:03.180Z,12.80
2022-10-02T04:22:39.809Z,12.70
2022-10-02T04:26:51.606Z,12.50
2022-10-02T04:30:54.368Z,12.60
2022-10-02T04:34:56.960Z,12.60
2022-10-02T04:39:25.258Z,12.60
2022-10-02T04:43:55.149Z,12.80
2022-10-02T04:48:24.379Z,13.30
2022-10-02T04:53:12.274Z,12.80
2022-10-02T04:57:23.081Z,12.70
2022-10-02T05:01:31.107Z,12.80
2022-10-02T05:06:30.312Z,12.70
2022-10-02T05:11:10.573Z,12.60
2022-10-02T05:15:21.387Z,12.70
2022-10-02T05:19:41.256Z,12.70
2022-10-02T05:23:55.552Z,12.80
2022-10-02T05:28:41.589Z,12.80
2022-10-02T05:33:02.280Z,12.70
2022-10-02T05:37:18.168Z,12.60
2022-10-02T05:41:26.064Z,12.80
2022-10-02T05:45:43.768Z,12.90
2022-10-02T05:49:58.435Z,12.90
2022-10-02T05:54:22.013Z,13.10
2022-10-02T05:58:51.443Z,13.00
2022-10-02T06:03:03.656Z,13.10
2022-10-02T06:07:13.253Z,13.10
2022-10-02T06:11:33.899Z,13.20
2022-10-02T06:15:46.930Z,13.20
2022-10-02T06:20:03.841Z,13.20
2022-10-02T06:24:15.174Z,13.30
2022-10-02T06:28:23.890Z,13.20
2022-10-02T06:32:36.232Z,13.10
2022-10-02T06:37:02.537Z,12.90
2022-10-02T06:41:25.084Z,13.00
2022-10-02T06:45:40.186Z,13.10
2022-10-02T06:49:51.670Z,13.10
2022-10-02T06:54:12.315Z,13.20
2022-10-02T06:58:35.100Z,13.40
2022-10-02T07:02:55.099Z,13.40
2022-10-02T07:07:23.211Z,13.50
2022-10-02T07:11:35.045Z,13.60
2022-10-02T07:16:06.938Z,13.80
2022-10-02T07:20:39.121Z,13.80
2022-10-02T07:24:53.098Z,12.30
2022-10-02T07:29:13.199Z,13.60
2022-10-02T07:33:46.672Z,13.60
2022-10-02T07:38:00.159Z,13.60
2022-10-02T07:42:22.257Z,13.70
2022-10-02T07:46:46.098Z,13.70
2022-10-02T07:51:47.281Z,13.70
2022-10-02T07:55:53.178Z,13.60
2022-10-02T08:00:01.904Z,13.60
2022-10-02T08:04:10.772Z,13.50
2022-10-02T08:08:51.291Z,13.50
2022-10-02T08:13:07.172Z,13.50
2022-10-02T08:17:30.905Z,13.50
2022-10-02T08:21:39.261Z,13.60
2022-10-02T08:25:58.130Z,13.70
2022-10-02T08:30:06.581Z,13.70
2022-10-02T08:34:24.076Z,13.80
2022-10-02T08:38:31.680Z,13.80
2022-10-02T08:43:06.396Z,13.90
2022-10-02T08:47:30.176Z,13.90
2022-10-02T08:52:10.894Z,13.90
2022-10-02T08:56:26.389Z,14.10
2022-10-02T09:01:08.518Z,14.10
2022-10-02T09:05:28.064Z,14.20
2022-10-02T09:09:32.634Z,14.30
2022-10-02T09:13:34.372Z,14.20
2022-10-02T09:17:45.585Z,14.20
2022-10-02T09:22:26.473Z,14.30
2022-10-02T09:27:03.433Z,14.30
2022-10-02T09:31:20.179Z,14.50
2022-10-02T09:35:43.216Z,13.30
2022-10-02T09:40:03.695Z,14.70
2022-10-02T09:44:14.800Z,14.60
2022-10-02T09:48:27.548Z,14.70
2022-10-02T09:52:50.297Z,14.80
2022-10-02T09:57:08.182Z,15.00
2022-10-02T10:01:25.298Z,15.10
2022-10-02T10:05:53.511Z,15.20
2022-10-02T10:10:22.308Z,15.30
2022-10-02T10:14:29.331Z,15.40
2022-10-02T10:18:52.867Z,15.40
2022-10-02T10:23:27.784Z,15.50
2022-10-02T10:28:06.281Z,15.30
2022-10-02T10:32:46.762Z,15.40
2022-10-02T10:37:25.832Z,15.40
2022-10-02T10:41:37.115Z,15.30
2022-10-02T10:46:03.982Z,15.40
2022-10-02T10:50:17.571Z,15.40
2022-10-02T10:54:48.643Z,15.50
2022-10-02T10:59:04.377Z,15.60
2022-10-02T11:03:32.762Z,15.50
2022-10-02T11:07:40.542Z,15.20
2022-10-02T11:11:57.712Z,15.20
2022-10-02T11:16:17.061Z,15.30
2022-10-02T11:20:19.424Z,15.20
2022-10-02T11:24:58.542Z,15.60
2022-10-02T11:29:00.341Z,16.60
2022-10-02T11:33:23.993Z,17.20
2022-10-02T11:38:03.657Z,17.40
2022-10-02T11:42:24.340Z,17.00
2022-10-02T11:46:37.119Z,16.80
2022-10-02T11:50:57.255Z,16.50
2022-10-02T11:55:26.494Z,16.50
2022-10-02T12:00:10.558Z,17.10
2022-10-02T12:04:47.401Z,17.50
2022-10-02T12:09:20.811Z,17.70
2022-10-02T12:13:25.454Z,17.40
2022-10-02T12:17:55.313Z,17.60
2022-10-02T12:22:42.986Z,17.80
2022-10-02T12:27:12.537Z,17.90
2022-10-02T12:31:40.979Z,18.00
2022-10-02T12:35:49.197Z,18.00
2022-10-02T12:40:01.875Z,17.90
2022-10-02T12:44:03.671Z,17.80
2022-10-02T12:48:46.882Z,17.60
2022-10-02T12:53:11.489Z,17.40
2022-10-02T12:57:39.108Z,17.40
2022-10-02T13:01:44.532Z,17.10
2022-10-02T13:06:10.888Z,16.80
2022-10-02T13:10:22.094Z,16.50
2022-10-02T13:14:42.643Z,16.60
2022-10-02T13:18:57.390Z,16.40
2022-10-02T13:23:32.704Z,16.30
2022-10-02T13:27:49.649Z,16.10
2022-10-02T13:32:11.476Z,16.20
2022-10-02T13:36:46.326Z,15.80
2022-10-02T13:41:06.329Z,15.50
2022-10-02T13:45:42.253Z,15.40
2022-10-02T13:50:26.646Z,15.40
2022-10-02T13:54:52.605Z,15.40
2022-10-02T13:59:22.367Z,15.10
2022-10-02T14:03:33.559Z,15.20
2022-10-02T14:08:09.484Z,15.30
2022-10-02T14:12:36.071Z,15.30
2022-10-02T14:16:49.821Z,14.90
2022-10-02T14:21:04.889Z,15.40
2022-10-02T14:25:29.851Z,15.20
2022-10-02T14:29:58.259Z,15.30
2022-10-02T14:34:25.223Z,15.20
2022-10-02T14:38:54.580Z,15.30
2022-10-02T14:43:15.935Z,15.30
2022-10-02T14:47:42.423Z,15.40
2022-10-02T14:52:20.636Z,15.50
2022-10-02T14:56:53.389Z,15.20
2022-10-02T15:01:19.616Z,15.10
2022-10-02T15:05:39.727Z,15.10
2022-10-02T15:09:48.281Z,15.00
2022-10-02T15:14:00.390Z,15.00
2022-10-02T15:18:32.605Z,14.90
2022-10-02T15:22:56.760Z,15.00
2022-10-02T15:27:08.175Z,15.00
2022-10-02T15:31:36.094Z,15.00
2022-10-02T15:35:47.202Z,15.10
2022-10-02T15:40:11.558Z,15.10
2022-10-02T15:44:34.553Z,15.20
2022-10-02T15:49:13.873Z,15.20
2022-10-02T15:53:42.940Z,15.20
2022-10-02T15:58:09.264Z,15.30
2022-10-02T16:02:35.185Z,15.40
2022-10-02T16:06:56.876Z,15.30
2022-10-02T16:11:32.783Z,15.40
2022-10-02T16:15:56.224Z,15.10
2022-10-02T16:20:23.769Z,15.00
2022-10-02T16:24:52.081Z,15.20
2022-10-02T16:29:07.557Z,15.20
2022-10-02T16:33:21.078Z,15.20
2022-10-02T16:37:33.825Z,15.10
2022-10-02T16:41:38.423Z,15.30
2022-10-02T16:46:09.395Z,15.30
2022-10-02T16:50:17.554Z,15.30
2022-10-02T16:54:37.199Z,15.30
2022-10-02T16:59:12.027Z,15.30
2022-10-02T17:03:41.928Z,15.10
2022-10-02T17:08:00.174Z,15.20
2022-10-02T17:12:29.526Z,14.90
2022-10-02T17:16:55.557Z,14.80
2022-10-02T17:21:11.051Z,14.80
2022-10-02T17:25:43.231Z,14.60
2022-10-02T17:29:54.658Z,14.50
2022-10-02T17:34:01.023Z,14.50
2022-10-02T17:38:24.249Z,14.50
2022-10-02T17:42:55.791Z,14.40
2022-10-02T17:47:17.861Z,14.40
2022-10-02T17:51:48.172Z,14.50
2022-10-02T17:56:30.724Z,14.50
2022-10-02T18:00:35.668Z,14.60
2022-10-02T18:05:15.109Z,14.80
2022-10-02T18:09:37.707Z,14.80
2022-10-02T18:13:45.410Z,14.70
2022-10-02T18:18:08.217Z,14.80
2022-10-02T18:22:37.141Z,14.70
2022-10-02T18:26:57.687Z,14.70
2022-10-02T18:31:25.580Z,14.60
2022-10-02T18:36:01.944Z,14.60
2022-10-02T18:40:16.030Z,14.60
2022-10-02T18:44:42.593Z,14.50
2022-10-02T18:49:07.874Z,14.40
2022-10-02T18:53:09.696Z,14.40
2022-10-02T18:57:28.286Z,14.50
2022-10-02T19:02:15.101Z,14.50
2022-10-02T19:06:45.604Z,14.50
2022-10-02T19:10:48.131Z,14.60
2022-10-02T19:14:55.833Z,14.50
2022-10-02T19:19:25.839Z,14.40
2022-10-02T19:23:32.951Z,14.40
2022-10-02T19:27:37.176Z,14.20
2022-10-02T19:31:41.562Z,14.10
2022-10-02T19:35:44.592Z,14.20
2022-10-02T19:39:53.686Z,14.20
2022-10-02T19:44:20.265Z,14.30
2022-10-02T19:48:24.599Z,14.40
2022-10-02T19:52:52.510Z,14.40
2022-10-02T19:57:06.720Z,14.40
2022-10-02T20:01:25.767Z,14.40
2022-10-02T20:05:31.721Z,14.40
2022-10-02T20:09:43.673Z,14.40
2022-10-02T20:13:53.354Z,14.40
2022-10-02T20:17:55.272Z,14.30
2022-10-02T20:22:19.471Z,14.20
2022-10-02T20:26:26.083Z,14.10
2022-10-02T20:30:35.492Z,14.10
2022-10-02T20:34:49.780Z,14.20
2022-10-02T20:39:04.728Z,14.20
2022-10-02T20:43:23.048Z,14.10
2022-10-02T20:47:54.124Z,14.10
2022-10-02T20:52:01.955Z,13.90
2022-10-02T20:56:37.732Z,13.90
2022-10-02T21:01:24.179Z,13.80
2022-10-02T21:05:38.985Z,13.80
2022-10-02T21:09:55.613Z,13.90
2022-10-02T21:14:09.870Z,13.90
2022-10-02T21:18:28.729Z,13.80
2022-10-02T21:22:55.276Z,13.80
2022-10-02T21:27:14.057Z,13.90
2022-10-02T21:31:35.145Z,13.90
2022-10-02T21:36:03.305Z,13.80
2022-10-02T21:40:18.915Z,13.70
2022-10-02T21:44:51.250Z,13.50
2022-10-02T21:49:05.101Z,13.50
2022-10-02T21:53:44.169Z,13.50
2022-10-02T21:58:15.233Z,13.40
2022-10-02T22:02:55.555Z,13.40
2022-10-02T22:06:57.433Z,13.40
2022-10-02T22:11:22.803Z,13.30
2022-10-02T22:15:55.301Z,13.40
2022-10-02T22:20:17.419Z,13.30
2022-10-02T22:24:46.769Z,13.20
2022-10-02T22:28:56.077Z,13.30
2022-10-02T22:33:16.770Z,12.90
2022-10-02T22:37:40.103Z,13.00
2022-10-02T22:42:17.005Z,12.70
2022-10-02T22:46:25.057Z,12.70
2022-10-02T22:50:36.534Z,12.60
2022-10-02T22:55:07.501Z,12.60
2022-10-02T22:59:18.883Z,12.40
2022-10-02T23:03:44.565Z,12.20
2022-10-02T23:08:31.039Z,12.10
2022-10-02T23:12:49.816Z,12.40
2022-10-02T23:17:07.445Z,12.50
2022-10-02T23:21:22.159Z,12.50
2022-10-02T23:25:46.311Z,12.40
2022-10-02T23:30:12.401Z,12.40
2022-10-02T23:34:19.969Z,12.40
2022-10-02T23:38:30.810Z,12.30
2022-10-02T23:42:47.723Z,12.30
2022-10-02T23:46:49.527Z,12.20
2022-10-02T23:51:06.310Z,12.40
2022-10-02T23:55:20.221Z,12.50
2022-10-02T23:59:54.563Z,12.50
